sensor_id;sensor_type;location;lat;lon;timestamp;P1;durP1;ratioP1;P2;durP2;ratioP2
29958;SDS011;16815;51.100;6.516;2023-01-09T00:00:12;2.20;;;1.00;;
29958;SDS011;16815;51.100;6.516;2023-01-09T00:02:38;3.27;;;0.90;;
29958;SDS011;16815;51.100;6.516;2023-01-09T00:05:06;1.70;;;0.97;;
29958;SDS011;16815;51.100;6.516;2023-01-09T00:07:32;1.13;;;1.00;;
29958;SDS011;16815;51.100;6.516;2023-01-09T00:09:58;3.03;;;1.00;;
29958;SDS011;16815;51.100;6.516;2023-01-09T00:12:24;1.30;;;1.10;;
29958;SDS011;16815;51.100;6.516;2023-01-09T00:14:50;3.80;;;1.00;;
29958;SDS011;16815;51.100;6.516;2023-01-09T00:17:16;1.00;;;0.80;;
29958;SDS011;16815;51.100;6.516;2023-01-09T00:19:42;4.43;;;1.70;;
29958;SDS011;16815;51.100;6.516;2023-01-09T00:22:08;1.37;;;1.10;;
29958;SDS011;16815;51.100;6.516;2023-01-09T00:24:37;1.80;;;1.10;;
29958;SDS011;16815;51.100;6.516;2023-01-09T00:27:04;1.57;;;0.90;;
29958;SDS011;16815;51.100;6.516;2023-01-09T00:29:30;2.77;;;1.13;;
29958;SDS011;16815;51.100;6.516;2023-01-09T00:31:56;2.87;;;0.90;;
29958;SDS011;16815;51.100;6.516;2023-01-09T00:34:22;1.27;;;0.80;;
29958;SDS011;16815;51.100;6.516;2023-01-09T00:36:48;0.83;;;0.80;;
29958;SDS011;16815;51.100;6.516;2023-01-09T00:39:19;0.70;;;0.70;;
29958;SDS011;16815;51.100;6.516;2023-01-09T00:41:45;2.30;;;0.87;;
29958;SDS011;16815;51.100;6.516;2023-01-09T00:44:16;2.27;;;0.97;;
29958;SDS011;16815;51.100;6.516;2023-01-09T00:46:44;0.87;;;0.87;;
29958;SDS011;16815;51.100;6.516;2023-01-09T00:49:11;0.67;;;0.67;;
29958;SDS011;16815;51.100;6.516;2023-01-09T00:51:38;0.60;;;0.60;;
29958;SDS011;16815;51.100;6.516;2023-01-09T00:54:04;0.60;;;0.60;;
29958;SDS011;16815;51.100;6.516;2023-01-09T00:56:30;0.80;;;0.80;;
29958;SDS011;16815;51.100;6.516;2023-01-09T00:58:57;0.90;;;0.90;;
29958;SDS011;16815;51.100;6.516;2023-01-09T01:01:23;1.30;;;0.73;;
29958;SDS011;16815;51.100;6.516;2023-01-09T01:03:49;0.80;;;0.80;;
29958;SDS011;16815;51.100;6.516;2023-01-09T01:06:15;3.87;;;0.80;;
29958;SDS011;16815;51.100;6.516;2023-01-09T01:08:59;0.70;;;0.70;;
29958;SDS011;16815;51.100;6.516;2023-01-09T01:11:25;1.17;;;0.90;;
29958;SDS011;16815;51.100;6.516;2023-01-09T01:13:51;1.30;;;0.83;;
29958;SDS011;16815;51.100;6.516;2023-01-09T01:16:18;1.10;;;1.00;;
29958;SDS011;16815;51.100;6.516;2023-01-09T01:18:44;1.00;;;0.90;;
29958;SDS011;16815;51.100;6.516;2023-01-09T01:21:10;0.80;;;0.80;;
29958;SDS011;16815;51.100;6.516;2023-01-09T01:23:37;0.80;;;0.80;;
29958;SDS011;16815;51.100;6.516;2023-01-09T01:26:06;1.10;;;1.00;;
29958;SDS011;16815;51.100;6.516;2023-01-09T01:28:32;1.33;;;1.07;;
29958;SDS011;16815;51.100;6.516;2023-01-09T01:30:58;0.97;;;0.90;;
29958;SDS011;16815;51.100;6.516;2023-01-09T01:33:24;1.33;;;0.80;;
29958;SDS011;16815;51.100;6.516;2023-01-09T01:35:51;2.83;;;1.07;;
29958;SDS011;16815;51.100;6.516;2023-01-09T01:38:23;1.53;;;0.80;;
29958;SDS011;16815;51.100;6.516;2023-01-09T01:40:52;0.97;;;0.90;;
29958;SDS011;16815;51.100;6.516;2023-01-09T01:43:18;1.40;;;1.30;;
29958;SDS011;16815;51.100;6.516;2023-01-09T01:45:44;1.80;;;1.17;;
29958;SDS011;16815;51.100;6.516;2023-01-09T01:53:10;1.50;;;1.00;;
29958;SDS011;16815;51.100;6.516;2023-01-09T01:55:39;2.30;;;1.10;;
29958;SDS011;16815;51.100;6.516;2023-01-09T01:58:06;1.53;;;1.10;;
29958;SDS011;16815;51.100;6.516;2023-01-09T02:00:37;1.30;;;1.20;;
29958;SDS011;16815;51.100;6.516;2023-01-09T02:03:04;1.50;;;1.40;;
29958;SDS011;16815;51.100;6.516;2023-01-09T02:05:31;1.73;;;1.20;;
29958;SDS011;16815;51.100;6.516;2023-01-09T02:07:57;1.63;;;1.30;;
29958;SDS011;16815;51.100;6.516;2023-01-09T02:10:23;1.70;;;1.20;;
29958;SDS011;16815;51.100;6.516;2023-01-09T02:12:49;1.57;;;1.20;;
29958;SDS011;16815;51.100;6.516;2023-01-09T02:15:15;3.83;;;1.10;;
29958;SDS011;16815;51.100;6.516;2023-01-09T02:22:54;2.27;;;1.30;;
29958;SDS011;16815;51.100;6.516;2023-01-09T02:31:20;2.90;;;1.30;;
29958;SDS011;16815;51.100;6.516;2023-01-09T02:33:28;1.73;;;1.30;;
29958;SDS011;16815;51.100;6.516;2023-01-09T02:36:09;2.60;;;1.33;;
29958;SDS011;16815;51.100;6.516;2023-01-09T02:43:43;2.47;;;1.43;;
29958;SDS011;16815;51.100;6.516;2023-01-09T02:46:14;3.37;;;1.43;;
29958;SDS011;16815;51.100;6.516;2023-01-09T02:48:43;2.27;;;1.53;;
29958;SDS011;16815;51.100;6.516;2023-01-09T02:51:11;4.33;;;1.60;;
29958;SDS011;16815;51.100;6.516;2023-01-09T02:53:49;3.87;;;1.70;;
29958;SDS011;16815;51.100;6.516;2023-01-09T02:56:43;2.20;;;1.23;;
29958;SDS011;16815;51.100;6.516;2023-01-09T03:06:45;6.67;;;1.70;;
29958;SDS011;16815;51.100;6.516;2023-01-09T03:09:19;3.00;;;1.37;;
29958;SDS011;16815;51.100;6.516;2023-01-09T03:11:49;3.93;;;1.40;;
29958;SDS011;16815;51.100;6.516;2023-01-09T03:14:17;1.53;;;1.43;;
29958;SDS011;16815;51.100;6.516;2023-01-09T03:16:45;3.50;;;1.53;;
29958;SDS011;16815;51.100;6.516;2023-01-09T03:19:14;4.40;;;1.67;;
29958;SDS011;16815;51.100;6.516;2023-01-09T03:21:41;2.80;;;1.50;;
29958;SDS011;16815;51.100;6.516;2023-01-09T03:24:08;4.40;;;2.00;;
29958;SDS011;16815;51.100;6.516;2023-01-09T03:26:34;2.90;;;1.80;;
29958;SDS011;16815;51.100;6.516;2023-01-09T03:29:00;3.40;;;1.50;;
29958;SDS011;16815;51.100;6.516;2023-01-09T03:31:26;3.13;;;1.57;;
29958;SDS011;16815;51.100;6.516;2023-01-09T03:33:52;2.17;;;1.50;;
29958;SDS011;16815;51.100;6.516;2023-01-09T03:36:19;3.53;;;1.80;;
29958;SDS011;16815;51.100;6.516;2023-01-09T03:38:45;2.67;;;1.60;;
29958;SDS011;16815;51.100;6.516;2023-01-09T03:41:11;4.67;;;1.57;;
29958;SDS011;16815;51.100;6.516;2023-01-09T03:43:37;4.97;;;1.77;;
29958;SDS011;16815;51.100;6.516;2023-01-09T03:46:03;2.03;;;1.50;;
29958;SDS011;16815;51.100;6.516;2023-01-09T03:48:29;2.73;;;1.63;;
29958;SDS011;16815;51.100;6.516;2023-01-09T03:50:55;5.40;;;1.80;;
29958;SDS011;16815;51.100;6.516;2023-01-09T03:53:22;5.20;;;1.73;;
29958;SDS011;16815;51.100;6.516;2023-01-09T03:55:49;4.03;;;1.70;;
29958;SDS011;16815;51.100;6.516;2023-01-09T03:58:16;5.87;;;2.03;;
29958;SDS011;16815;51.100;6.516;2023-01-09T04:00:42;3.40;;;1.60;;
29958;SDS011;16815;51.100;6.516;2023-01-09T04:03:10;4.53;;;1.77;;
29958;SDS011;16815;51.100;6.516;2023-01-09T04:05:36;6.57;;;2.37;;
29958;SDS011;16815;51.100;6.516;2023-01-09T04:08:02;4.37;;;1.40;;
29958;SDS011;16815;51.100;6.516;2023-01-09T04:10:28;6.53;;;1.97;;
29958;SDS011;16815;51.100;6.516;2023-01-09T04:12:54;7.93;;;1.73;;
29958;SDS011;16815;51.100;6.516;2023-01-09T04:15:20;4.77;;;2.10;;
29958;SDS011;16815;51.100;6.516;2023-01-09T04:17:46;2.57;;;1.60;;
29958;SDS011;16815;51.100;6.516;2023-01-09T04:20:12;6.33;;;1.80;;
29958;SDS011;16815;51.100;6.516;2023-01-09T04:22:38;4.67;;;1.60;;
29958;SDS011;16815;51.100;6.516;2023-01-09T04:25:04;4.10;;;1.50;;
29958;SDS011;16815;51.100;6.516;2023-01-09T04:27:30;1.60;;;1.40;;
29958;SDS011;16815;51.100;6.516;2023-01-09T04:29:56;4.63;;;1.80;;
29958;SDS011;16815;51.100;6.516;2023-01-09T04:32:22;6.73;;;1.77;;
29958;SDS011;16815;51.100;6.516;2023-01-09T04:34:48;6.10;;;1.80;;
29958;SDS011;16815;51.100;6.516;2023-01-09T04:37:14;6.63;;;1.93;;
29958;SDS011;16815;51.100;6.516;2023-01-09T04:39:39;3.80;;;1.70;;
29958;SDS011;16815;51.100;6.516;2023-01-09T04:42:09;11.17;;;1.70;;
29958;SDS011;16815;51.100;6.516;2023-01-09T04:44:35;5.70;;;1.93;;
29958;SDS011;16815;51.100;6.516;2023-01-09T04:47:01;5.60;;;1.57;;
29958;SDS011;16815;51.100;6.516;2023-01-09T04:49:27;5.17;;;1.93;;
29958;SDS011;16815;51.100;6.516;2023-01-09T04:51:53;4.40;;;1.80;;
29958;SDS011;16815;51.100;6.516;2023-01-09T04:54:19;10.20;;;1.97;;
29958;SDS011;16815;51.100;6.516;2023-01-09T04:56:45;4.43;;;1.80;;
29958;SDS011;16815;51.100;6.516;2023-01-09T04:59:11;6.10;;;1.83;;
29958;SDS011;16815;51.100;6.516;2023-01-09T05:01:37;5.60;;;1.83;;
29958;SDS011;16815;51.100;6.516;2023-01-09T05:04:03;13.17;;;2.47;;
29958;SDS011;16815;51.100;6.516;2023-01-09T05:06:29;8.00;;;2.27;;
29958;SDS011;16815;51.100;6.516;2023-01-09T05:08:55;5.57;;;2.10;;
29958;SDS011;16815;51.100;6.516;2023-01-09T05:11:22;8.67;;;1.70;;
29958;SDS011;16815;51.100;6.516;2023-01-09T05:13:49;9.97;;;2.23;;
29958;SDS011;16815;51.100;6.516;2023-01-09T05:16:15;6.30;;;1.93;;
29958;SDS011;16815;51.100;6.516;2023-01-09T05:18:41;5.40;;;1.60;;
29958;SDS011;16815;51.100;6.516;2023-01-09T05:21:07;7.80;;;2.00;;
29958;SDS011;16815;51.100;6.516;2023-01-09T05:23:33;4.83;;;1.60;;
29958;SDS011;16815;51.100;6.516;2023-01-09T05:25:59;6.47;;;1.97;;
29958;SDS011;16815;51.100;6.516;2023-01-09T05:28:25;7.60;;;2.27;;
29958;SDS011;16815;51.100;6.516;2023-01-09T05:30:51;9.40;;;2.10;;
29958;SDS011;16815;51.100;6.516;2023-01-09T05:33:17;8.00;;;2.27;;
29958;SDS011;16815;51.100;6.516;2023-01-09T05:35:43;4.37;;;1.43;;
29958;SDS011;16815;51.100;6.516;2023-01-09T05:38:09;6.10;;;1.80;;
29958;SDS011;16815;51.100;6.516;2023-01-09T05:40:35;6.33;;;1.80;;
29958;SDS011;16815;51.100;6.516;2023-01-09T05:43:01;5.03;;;1.57;;
29958;SDS011;16815;51.100;6.516;2023-01-09T05:45:27;6.87;;;1.73;;
29958;SDS011;16815;51.100;6.516;2023-01-09T05:47:53;5.27;;;2.03;;
29958;SDS011;16815;51.100;6.516;2023-01-09T05:50:19;6.80;;;1.60;;
29958;SDS011;16815;51.100;6.516;2023-01-09T05:52:45;6.93;;;1.60;;
29958;SDS011;16815;51.100;6.516;2023-01-09T05:55:11;4.67;;;1.70;;
29958;SDS011;16815;51.100;6.516;2023-01-09T05:57:37;5.57;;;2.00;;
29958;SDS011;16815;51.100;6.516;2023-01-09T06:00:03;3.93;;;1.60;;
29958;SDS011;16815;51.100;6.516;2023-01-09T06:02:29;3.93;;;1.60;;
29958;SDS011;16815;51.100;6.516;2023-01-09T06:04:55;4.90;;;1.90;;
29958;SDS011;16815;51.100;6.516;2023-01-09T06:07:21;7.90;;;2.47;;
29958;SDS011;16815;51.100;6.516;2023-01-09T06:09:47;7.53;;;2.00;;
29958;SDS011;16815;51.100;6.516;2023-01-09T06:12:13;11.23;;;2.50;;
29958;SDS011;16815;51.100;6.516;2023-01-09T06:14:39;5.17;;;1.83;;
29958;SDS011;16815;51.100;6.516;2023-01-09T06:17:05;5.33;;;1.70;;
29958;SDS011;16815;51.100;6.516;2023-01-09T06:19:31;6.20;;;2.37;;
29958;SDS011;16815;51.100;6.516;2023-01-09T06:21:57;4.70;;;1.93;;
29958;SDS011;16815;51.100;6.516;2023-01-09T06:24:23;6.00;;;1.70;;
29958;SDS011;16815;51.100;6.516;2023-01-09T06:26:49;6.73;;;1.80;;
29958;SDS011;16815;51.100;6.516;2023-01-09T06:29:15;7.27;;;2.33;;
29958;SDS011;16815;51.100;6.516;2023-01-09T06:31:41;7.90;;;2.53;;
29958;SDS011;16815;51.100;6.516;2023-01-09T06:34:07;6.30;;;2.00;;
29958;SDS011;16815;51.100;6.516;2023-01-09T06:36:33;7.53;;;2.20;;
29958;SDS011;16815;51.100;6.516;2023-01-09T06:38:59;5.73;;;2.00;;
29958;SDS011;16815;51.100;6.516;2023-01-09T06:41:25;8.53;;;2.47;;
29958;SDS011;16815;51.100;6.516;2023-01-09T06:43:51;7.47;;;2.23;;
29958;SDS011;16815;51.100;6.516;2023-01-09T06:46:17;7.67;;;2.37;;
29958;SDS011;16815;51.100;6.516;2023-01-09T06:48:43;5.63;;;1.97;;
29958;SDS011;16815;51.100;6.516;2023-01-09T06:51:09;7.23;;;2.37;;
29958;SDS011;16815;51.100;6.516;2023-01-09T06:53:35;6.53;;;1.93;;
29958;SDS011;16815;51.100;6.516;2023-01-09T06:56:01;11.63;;;2.70;;
29958;SDS011;16815;51.100;6.516;2023-01-09T06:58:27;7.77;;;2.20;;
29958;SDS011;16815;51.100;6.516;2023-01-09T07:00:53;5.20;;;2.13;;
29958;SDS011;16815;51.100;6.516;2023-01-09T07:03:21;11.67;;;2.50;;
29958;SDS011;16815;51.100;6.516;2023-01-09T07:05:48;6.43;;;2.27;;
29958;SDS011;16815;51.100;6.516;2023-01-09T07:08:14;7.03;;;2.10;;
29958;SDS011;16815;51.100;6.516;2023-01-09T07:10:40;8.37;;;1.83;;
29958;SDS011;16815;51.100;6.516;2023-01-09T07:13:06;6.20;;;1.77;;
29958;SDS011;16815;51.100;6.516;2023-01-09T07:15:32;5.93;;;2.27;;
29958;SDS011;16815;51.100;6.516;2023-01-09T07:17:58;7.43;;;1.80;;
29958;SDS011;16815;51.100;6.516;2023-01-09T07:20:24;6.07;;;1.80;;
29958;SDS011;16815;51.100;6.516;2023-01-09T07:22:50;5.50;;;1.70;;
29958;SDS011;16815;51.100;6.516;2023-01-09T07:25:17;5.47;;;2.07;;
29958;SDS011;16815;51.100;6.516;2023-01-09T07:27:43;7.77;;;2.00;;
29958;SDS011;16815;51.100;6.516;2023-01-09T07:30:09;10.37;;;2.30;;
29958;SDS011;16815;51.100;6.516;2023-01-09T07:32:35;5.47;;;2.03;;
29958;SDS011;16815;51.100;6.516;2023-01-09T07:35:04;7.93;;;2.27;;
29958;SDS011;16815;51.100;6.516;2023-01-09T07:37:30;6.57;;;2.23;;
29958;SDS011;16815;51.100;6.516;2023-01-09T07:39:56;7.23;;;2.00;;
29958;SDS011;16815;51.100;6.516;2023-01-09T07:42:22;6.83;;;2.03;;
29958;SDS011;16815;51.100;6.516;2023-01-09T07:44:48;9.87;;;2.53;;
29958;SDS011;16815;51.100;6.516;2023-01-09T07:47:15;7.87;;;1.77;;
29958;SDS011;16815;51.100;6.516;2023-01-09T07:49:41;8.30;;;1.80;;
29958;SDS011;16815;51.100;6.516;2023-01-09T07:52:07;5.77;;;2.10;;
29958;SDS011;16815;51.100;6.516;2023-01-09T07:54:33;11.97;;;2.43;;
29958;SDS011;16815;51.100;6.516;2023-01-09T07:56:59;4.87;;;1.80;;
29958;SDS011;16815;51.100;6.516;2023-01-09T07:59:25;7.30;;;2.33;;
29958;SDS011;16815;51.100;6.516;2023-01-09T08:01:53;7.20;;;1.90;;
29958;SDS011;16815;51.100;6.516;2023-01-09T08:04:19;7.20;;;2.23;;
29958;SDS011;16815;51.100;6.516;2023-01-09T08:06:45;4.23;;;1.87;;
29958;SDS011;16815;51.100;6.516;2023-01-09T08:09:11;7.10;;;1.87;;
29958;SDS011;16815;51.100;6.516;2023-01-09T08:11:37;10.63;;;2.20;;
29958;SDS011;16815;51.100;6.516;2023-01-09T08:14:03;5.57;;;1.93;;
29958;SDS011;16815;51.100;6.516;2023-01-09T08:16:29;6.83;;;2.20;;
29958;SDS011;16815;51.100;6.516;2023-01-09T08:18:55;6.93;;;1.80;;
29958;SDS011;16815;51.100;6.516;2023-01-09T08:21:21;4.13;;;1.83;;
29958;SDS011;16815;51.100;6.516;2023-01-09T08:23:47;5.90;;;2.10;;
29958;SDS011;16815;51.100;6.516;2023-01-09T08:26:13;4.80;;;1.90;;
29958;SDS011;16815;51.100;6.516;2023-01-09T08:28:39;7.83;;;2.40;;
29958;SDS011;16815;51.100;6.516;2023-01-09T08:31:05;4.70;;;1.90;;
29958;SDS011;16815;51.100;6.516;2023-01-09T08:33:31;5.07;;;1.70;;
29958;SDS011;16815;51.100;6.516;2023-01-09T08:35:57;9.20;;;2.03;;
29958;SDS011;16815;51.100;6.516;2023-01-09T08:38:23;6.07;;;2.10;;
29958;SDS011;16815;51.100;6.516;2023-01-09T08:40:49;10.30;;;2.80;;
29958;SDS011;16815;51.100;6.516;2023-01-09T08:43:15;3.57;;;1.57;;
29958;SDS011;16815;51.100;6.516;2023-01-09T08:46:00;6.20;;;1.63;;
29958;SDS011;16815;51.100;6.516;2023-01-09T08:48:44;7.70;;;2.30;;
29958;SDS011;16815;51.100;6.516;2023-01-09T08:51:11;4.53;;;2.03;;
29958;SDS011;16815;51.100;6.516;2023-01-09T08:53:38;4.07;;;1.83;;
29958;SDS011;16815;51.100;6.516;2023-01-09T08:56:04;5.40;;;1.77;;
29958;SDS011;16815;51.100;6.516;2023-01-09T08:58:30;3.37;;;1.60;;
29958;SDS011;16815;51.100;6.516;2023-01-09T09:00:56;4.63;;;1.97;;
29958;SDS011;16815;51.100;6.516;2023-01-09T09:03:23;7.00;;;1.73;;
29958;SDS011;16815;51.100;6.516;2023-01-09T09:05:48;7.53;;;1.90;;
29958;SDS011;16815;51.100;6.516;2023-01-09T09:08:14;7.90;;;2.03;;
29958;SDS011;16815;51.100;6.516;2023-01-09T09:10:40;3.97;;;1.50;;
29958;SDS011;16815;51.100;6.516;2023-01-09T09:13:06;4.83;;;1.93;;
29958;SDS011;16815;51.100;6.516;2023-01-09T09:15:32;4.57;;;1.40;;
29958;SDS011;16815;51.100;6.516;2023-01-09T09:17:59;6.27;;;1.60;;
29958;SDS011;16815;51.100;6.516;2023-01-09T09:20:27;4.03;;;1.57;;
29958;SDS011;16815;51.100;6.516;2023-01-09T09:22:53;4.07;;;1.90;;
29958;SDS011;16815;51.100;6.516;2023-01-09T09:25:19;7.00;;;1.70;;
29958;SDS011;16815;51.100;6.516;2023-01-09T09:27:46;2.90;;;1.37;;
29958;SDS011;16815;51.100;6.516;2023-01-09T09:30:12;5.13;;;1.50;;
29958;SDS011;16815;51.100;6.516;2023-01-09T09:32:38;5.27;;;1.67;;
29958;SDS011;16815;51.100;6.516;2023-01-09T09:35:05;2.97;;;1.50;;
29958;SDS011;16815;51.100;6.516;2023-01-09T09:37:31;4.67;;;1.50;;
29958;SDS011;16815;51.100;6.516;2023-01-09T09:39:57;3.13;;;1.40;;
29958;SDS011;16815;51.100;6.516;2023-01-09T09:45:21;4.43;;;1.30;;
29958;SDS011;16815;51.100;6.516;2023-01-09T09:53:02;4.20;;;1.63;;
29958;SDS011;16815;51.100;6.516;2023-01-09T09:55:32;2.40;;;1.30;;
29958;SDS011;16815;51.100;6.516;2023-01-09T09:58:00;3.60;;;1.53;;
29958;SDS011;16815;51.100;6.516;2023-01-09T10:00:26;5.13;;;1.50;;
29958;SDS011;16815;51.100;6.516;2023-01-09T10:03:02;4.27;;;1.53;;
29958;SDS011;16815;51.100;6.516;2023-01-09T10:05:32;3.70;;;1.40;;
29958;SDS011;16815;51.100;6.516;2023-01-09T10:08:47;3.57;;;1.70;;
29958;SDS011;16815;51.100;6.516;2023-01-09T10:10:46;7.17;;;1.80;;
29958;SDS011;16815;51.100;6.516;2023-01-09T10:13:16;3.47;;;1.60;;
29958;SDS011;16815;51.100;6.516;2023-01-09T10:16:03;4.80;;;1.73;;
29958;SDS011;16815;51.100;6.516;2023-01-09T10:21:17;4.17;;;1.50;;
29958;SDS011;16815;51.100;6.516;2023-01-09T10:24:00;3.63;;;1.77;;
29958;SDS011;16815;51.100;6.516;2023-01-09T10:32:03;4.30;;;1.60;;
29958;SDS011;16815;51.100;6.516;2023-01-09T10:34:42;4.90;;;1.67;;
29958;SDS011;16815;51.100;6.516;2023-01-09T10:37:12;4.30;;;1.60;;
29958;SDS011;16815;51.100;6.516;2023-01-09T10:39:41;3.43;;;2.00;;
29958;SDS011;16815;51.100;6.516;2023-01-09T10:45:01;3.03;;;1.40;;
29958;SDS011;16815;51.100;6.516;2023-01-09T10:47:32;3.97;;;1.50;;
29958;SDS011;16815;51.100;6.516;2023-01-09T10:49:58;4.57;;;1.63;;
29958;SDS011;16815;51.100;6.516;2023-01-09T10:52:35;5.30;;;1.70;;
29958;SDS011;16815;51.100;6.516;2023-01-09T10:58:00;2.83;;;1.30;;
29958;SDS011;16815;51.100;6.516;2023-01-09T11:00:26;4.63;;;1.80;;
29958;SDS011;16815;51.100;6.516;2023-01-09T11:02:53;4.90;;;1.57;;
29958;SDS011;16815;51.100;6.516;2023-01-09T11:05:26;4.30;;;1.87;;
29958;SDS011;16815;51.100;6.516;2023-01-09T11:10:45;5.50;;;1.87;;
29958;SDS011;16815;51.100;6.516;2023-01-09T11:13:34;3.30;;;1.80;;
29958;SDS011;16815;51.100;6.516;2023-01-09T11:18:31;3.70;;;1.60;;
29958;SDS011;16815;51.100;6.516;2023-01-09T11:23:42;3.97;;;1.77;;
29958;SDS011;16815;51.100;6.516;2023-01-09T11:26:20;7.10;;;1.50;;
29958;SDS011;16815;51.100;6.516;2023-01-09T11:28:52;3.70;;;1.60;;
29958;SDS011;16815;51.100;6.516;2023-01-09T11:31:28;3.83;;;1.50;;
29958;SDS011;16815;51.100;6.516;2023-01-09T11:33:54;1.60;;;1.00;;
29958;SDS011;16815;51.100;6.516;2023-01-09T11:36:22;6.33;;;1.77;;
29958;SDS011;16815;51.100;6.516;2023-01-09T11:38:55;2.80;;;1.30;;
29958;SDS011;16815;51.100;6.516;2023-01-09T11:41:23;4.00;;;1.50;;
29958;SDS011;16815;51.100;6.516;2023-01-09T11:43:50;2.20;;;1.40;;
29958;SDS011;16815;51.100;6.516;2023-01-09T11:46:38;2.03;;;1.37;;
29958;SDS011;16815;51.100;6.516;2023-01-09T11:51:41;3.10;;;1.30;;
29958;SDS011;16815;51.100;6.516;2023-01-09T11:54:15;4.87;;;1.33;;
29958;SDS011;16815;51.100;6.516;2023-01-09T11:56:42;3.83;;;1.40;;
29958;SDS011;16815;51.100;6.516;2023-01-09T11:59:12;4.13;;;1.43;;
29958;SDS011;16815;51.100;6.516;2023-01-09T12:01:54;2.90;;;1.37;;
29958;SDS011;16815;51.100;6.516;2023-01-09T12:10:02;3.73;;;1.30;;
29958;SDS011;16815;51.100;6.516;2023-01-09T12:12:37;5.60;;;1.80;;
29958;SDS011;16815;51.100;6.516;2023-01-09T12:15:15;2.97;;;1.70;;
29958;SDS011;16815;51.100;6.516;2023-01-09T12:20:35;7.13;;;1.93;;
29958;SDS011;16815;51.100;6.516;2023-01-09T12:23:12;3.13;;;1.60;;
29958;SDS011;16815;51.100;6.516;2023-01-09T12:28:18;5.93;;;1.60;;
29958;SDS011;16815;51.100;6.516;2023-01-09T12:30:54;4.20;;;1.40;;
29958;SDS011;16815;51.100;6.516;2023-01-09T12:33:42;6.57;;;1.50;;
29958;SDS011;16815;51.100;6.516;2023-01-09T12:46:46;4.27;;;1.60;;
29958;SDS011;16815;51.100;6.516;2023-01-09T12:51:46;4.13;;;1.90;;
29958;SDS011;16815;51.100;6.516;2023-01-09T12:56:52;3.50;;;1.60;;
29958;SDS011;16815;51.100;6.516;2023-01-09T12:59:20;3.73;;;1.80;;
29958;SDS011;16815;51.100;6.516;2023-01-09T13:01:54;5.57;;;1.93;;
29958;SDS011;16815;51.100;6.516;2023-01-09T13:04:23;4.67;;;1.67;;
29958;SDS011;16815;51.100;6.516;2023-01-09T13:06:51;5.93;;;2.30;;
29958;SDS011;16815;51.100;6.516;2023-01-09T13:09:24;6.47;;;2.00;;
29958;SDS011;16815;51.100;6.516;2023-01-09T13:12:01;3.93;;;1.60;;
29958;SDS011;16815;51.100;6.516;2023-01-09T13:16:54;5.90;;;2.30;;
29958;SDS011;16815;51.100;6.516;2023-01-09T13:19:28;5.20;;;2.03;;
29958;SDS011;16815;51.100;6.516;2023-01-09T13:21:55;5.03;;;1.67;;
29958;SDS011;16815;51.100;6.516;2023-01-09T13:25:12;5.27;;;2.57;;
29958;SDS011;16815;51.100;6.516;2023-01-09T13:27:09;3.77;;;1.80;;
29958;SDS011;16815;51.100;6.516;2023-01-09T13:29:39;6.10;;;2.30;;
29958;SDS011;16815;51.100;6.516;2023-01-09T13:34:33;4.60;;;2.00;;
29958;SDS011;16815;51.100;6.516;2023-01-09T13:37:00;5.93;;;2.07;;
29958;SDS011;16815;51.100;6.516;2023-01-09T13:39:27;6.93;;;2.23;;
29958;SDS011;16815;51.100;6.516;2023-01-09T13:41:57;5.20;;;2.10;;
29958;SDS011;16815;51.100;6.516;2023-01-09T13:44:43;3.33;;;1.90;;
29958;SDS011;16815;51.100;6.516;2023-01-09T13:47:13;2.73;;;1.50;;
29958;SDS011;16815;51.100;6.516;2023-01-09T13:59:45;2.00;;;1.50;;
29958;SDS011;16815;51.100;6.516;2023-01-09T14:04:57;6.40;;;1.80;;
29958;SDS011;16815;51.100;6.516;2023-01-09T14:07:26;6.67;;;1.87;;
29958;SDS011;16815;51.100;6.516;2023-01-09T14:09:59;2.83;;;1.53;;
29958;SDS011;16815;51.100;6.516;2023-01-09T14:12:27;5.30;;;1.93;;
29958;SDS011;16815;51.100;6.516;2023-01-09T14:14:54;6.03;;;1.90;;
29958;SDS011;16815;51.100;6.516;2023-01-09T14:17:31;3.80;;;1.60;;
29958;SDS011;16815;51.100;6.516;2023-01-09T14:19:59;4.77;;;2.00;;
29958;SDS011;16815;51.100;6.516;2023-01-09T14:22:27;4.93;;;1.53;;
29958;SDS011;16815;51.100;6.516;2023-01-09T14:24:53;5.93;;;2.20;;
29958;SDS011;16815;51.100;6.516;2023-01-09T14:33:03;6.60;;;1.97;;
29958;SDS011;16815;51.100;6.516;2023-01-09T14:35:42;6.30;;;2.10;;
29958;SDS011;16815;51.100;6.516;2023-01-09T14:38:30;8.57;;;2.60;;
29958;SDS011;16815;51.100;6.516;2023-01-09T14:44:00;6.77;;;2.37;;
29958;SDS011;16815;51.100;6.516;2023-01-09T14:46:29;4.60;;;1.80;;
29958;SDS011;16815;51.100;6.516;2023-01-09T14:49:05;4.47;;;2.00;;
29958;SDS011;16815;51.100;6.516;2023-01-09T14:51:33;3.50;;;1.70;;
29958;SDS011;16815;51.100;6.516;2023-01-09T14:54:00;5.47;;;1.80;;
29958;SDS011;16815;51.100;6.516;2023-01-09T14:56:29;5.80;;;2.57;;
29958;SDS011;16815;51.100;6.516;2023-01-09T15:01:50;3.97;;;1.87;;
29958;SDS011;16815;51.100;6.516;2023-01-09T15:04:30;3.63;;;1.97;;
29958;SDS011;16815;51.100;6.516;2023-01-09T15:06:58;5.70;;;1.90;;
29958;SDS011;16815;51.100;6.516;2023-01-09T15:09:25;5.47;;;2.00;;
29958;SDS011;16815;51.100;6.516;2023-01-09T15:11:53;5.97;;;2.03;;
29958;SDS011;16815;51.100;6.516;2023-01-09T15:14:25;5.53;;;1.90;;
29958;SDS011;16815;51.100;6.516;2023-01-09T15:16:53;3.93;;;1.97;;
29958;SDS011;16815;51.100;6.516;2023-01-09T15:19:19;3.97;;;1.80;;
29958;SDS011;16815;51.100;6.516;2023-01-09T15:24:41;2.13;;;1.73;;
29958;SDS011;16815;51.100;6.516;2023-01-09T15:27:10;3.40;;;2.20;;
29958;SDS011;16815;51.100;6.516;2023-01-09T15:29:39;4.13;;;1.80;;
29958;SDS011;16815;51.100;6.516;2023-01-09T15:32:10;4.40;;;2.20;;
29958;SDS011;16815;51.100;6.516;2023-01-09T15:34:39;9.93;;;2.63;;
29958;SDS011;16815;51.100;6.516;2023-01-09T15:37:17;6.60;;;2.20;;
29958;SDS011;16815;51.100;6.516;2023-01-09T15:39:46;3.40;;;2.00;;
29958;SDS011;16815;51.100;6.516;2023-01-09T15:42:21;3.87;;;2.03;;
29958;SDS011;16815;51.100;6.516;2023-01-09T15:45:11;6.30;;;2.40;;
29958;SDS011;16815;51.100;6.516;2023-01-09T15:47:37;4.73;;;1.80;;
29958;SDS011;16815;51.100;6.516;2023-01-09T15:50:03;4.57;;;2.10;;
29958;SDS011;16815;51.100;6.516;2023-01-09T15:52:30;4.40;;;2.00;;
29958;SDS011;16815;51.100;6.516;2023-01-09T15:54:56;5.03;;;2.10;;
29958;SDS011;16815;51.100;6.516;2023-01-09T15:59:51;5.33;;;2.07;;
29958;SDS011;16815;51.100;6.516;2023-01-09T16:02:17;3.77;;;2.00;;
29958;SDS011;16815;51.100;6.516;2023-01-09T16:05:07;6.57;;;2.73;;
29958;SDS011;16815;51.100;6.516;2023-01-09T16:07:33;4.77;;;2.10;;
29958;SDS011;16815;51.100;6.516;2023-01-09T16:09:59;5.83;;;2.37;;
29958;SDS011;16815;51.100;6.516;2023-01-09T16:12:26;4.13;;;2.20;;
29958;SDS011;16815;51.100;6.516;2023-01-09T16:14:53;6.20;;;2.20;;
29958;SDS011;16815;51.100;6.516;2023-01-09T16:17:20;7.53;;;2.63;;
29958;SDS011;16815;51.100;6.516;2023-01-09T16:20:11;3.97;;;2.30;;
29958;SDS011;16815;51.100;6.516;2023-01-09T16:22:50;3.73;;;2.03;;
29958;SDS011;16815;51.100;6.516;2023-01-09T16:25:24;8.80;;;2.63;;
29958;SDS011;16815;51.100;6.516;2023-01-09T16:30:36;4.63;;;1.90;;
29958;SDS011;16815;51.100;6.516;2023-01-09T16:33:03;4.00;;;2.50;;
29958;SDS011;16815;51.100;6.516;2023-01-09T16:35:29;6.77;;;2.87;;
29958;SDS011;16815;51.100;6.516;2023-01-09T16:37:55;6.97;;;2.87;;
29958;SDS011;16815;51.100;6.516;2023-01-09T16:40:22;5.73;;;3.07;;
29958;SDS011;16815;51.100;6.516;2023-01-09T16:42:49;9.03;;;3.03;;
29958;SDS011;16815;51.100;6.516;2023-01-09T16:45:25;7.93;;;2.87;;
29958;SDS011;16815;51.100;6.516;2023-01-09T16:47:52;7.63;;;2.23;;
29958;SDS011;16815;51.100;6.516;2023-01-09T16:50:18;8.80;;;2.70;;
29958;SDS011;16815;51.100;6.516;2023-01-09T16:52:45;7.93;;;2.40;;
29958;SDS011;16815;51.100;6.516;2023-01-09T16:55:11;4.43;;;2.30;;
29958;SDS011;16815;51.100;6.516;2023-01-09T16:57:37;8.67;;;2.93;;
29958;SDS011;16815;51.100;6.516;2023-01-09T17:00:05;6.93;;;2.90;;